Time;durP1;ratioP1;P1;durP2;ratioP2;P2;SDS_P1;SDS_P2;PMS_P1;PMS_P2;Temp;Humidity;BMP_temperature;BMP_pressure;BME280_temperature;BME280_humidity;BME280_pressure;Samples;Min_cycle;Max_cycle;Signal;HPM_P1;HPM_P2
2022/07/27 00:04:00;;;;;;;3.67;1.00;;;;;;;18.80;69.05;100587.59;5096578;58;1141192;-68
2022/07/27 00:09:05;;;;;;;2.55;0.75;;;;;;;18.85;69.33;100586.59;5100497;57;1139036;-67
2022/07/27 00:14:11;;;;;;;5.58;0.82;;;;;;;18.79;68.97;100585.95;5116179;58;1139282;-67
2022/07/27 00:19:17;;;;;;;2.60;1.10;;;;;;;18.56;68.74;100590.63;5111882;57;1139205;-68
2022/07/27 00:24:23;;;;;;;2.37;1.10;;;;;;;18.41;69.28;100584.27;5137168;57;1139021;-67
2022/07/27 00:29:29;;;;;;;4.42;1.12;;;;;;;18.26;69.69;100581.94;5137124;57;1139099;-67
2022/07/27 00:34:35;;;;;;;8.30;1.20;;;;;;;18.09;70.07;100573.05;5137194;57;1139260;-68
2022/07/27 00:39:42;;;;;;;2.47;0.80;;;;;;;18.05;70.76;100583.75;5128932;57;1139056;-69
2022/07/27 00:44:47;;;;;;;1.37;0.80;;;;;;;18.08;71.24;100576.73;5087021;57;1139063;-69
2022/07/27 00:49:53;;;;;;;2.10;0.75;;;;;;;17.99;70.89;100591.12;5116032;57;1139212;-67
2022/07/27 00:54:59;;;;;;;6.58;1.17;;;;;;;17.95;71.19;100587.09;5115834;57;1139037;-67
2022/07/27 01:00:07;;;;;;;8.90;2.75;;;;;;;17.74;71.26;100598.73;5116031;57;1139013;-68
2022/07/27 01:05:12;;;;;;;4.70;1.60;;;;;;;17.65;71.86;100599.23;5115946;57;1139146;-69
2022/07/27 01:10:19;;;;;;;8.20;1.27;;;;;;;17.67;72.64;100601.24;5115686;57;1139334;-68
2022/07/27 01:15:26;;;;;;;1.57;1.30;;;;;;;17.89;73.07;100594.42;5115200;58;1139066;-68
2022/07/27 01:20:32;;;;;;;8.48;1.80;;;;;;;18.14;72.95;100583.27;5067066;58;1139078;-67
2022/07/27 01:25:40;;;;;;;8.80;1.30;;;;;;;18.12;71.79;100583.44;5029238;59;1138999;-67
2022/07/27 01:30:46;;;;;;;5.60;1.04;;;;;;;18.08;71.69;100582.59;5029666;58;1139184;-68
2022/07/27 01:35:55;;;;;;;1.05;0.72;;;;;;;18.05;72.27;100581.57;5033406;58;1139141;-68
2022/07/27 01:41:01;;;;;;;3.55;0.93;;;;;;;18.06;72.08;100576.05;5063007;58;1139055;-67
2022/07/27 01:46:08;;;;;;;2.65;0.90;;;;;;;18.09;72.55;100572.22;5115299;58;1139058;-69
2022/07/27 01:51:13;;;;;;;2.67;0.88;;;;;;;18.21;72.73;100565.02;5115093;58;1137015;-69
2022/07/27 01:56:19;;;;;;;5.45;1.05;;;;;;;18.21;72.21;100574.89;5115648;58;1137279;-68
2022/07/27 02:01:25;;;;;;;2.60;1.25;;;;;;;18.07;71.67;100569.70;5115090;58;1136950;-68
2022/07/27 02:06:31;;;;;;;5.33;2.35;;;;;;;18.06;72.58;100577.89;5114135;57;1137022;-68
2022/07/27 02:17:01;;;;;;;3.85;1.12;;;;;;;17.80;72.67;100592.25;5115615;57;1136982;-68
2022/07/27 02:22:07;;;;;;;2.65;1.10;;;;;;;17.89;73.28;100583.22;5115757;57;1137002;-69
2022/07/27 02:27:13;;;;;;;6.47;1.37;;;;;;;17.84;72.79;100587.41;5133509;57;1136906;-68
2022/07/27 02:32:19;;;;;;;3.67;1.37;;;;;;;17.75;72.96;100593.23;5127946;57;1137121;-69
2022/07/27 02:37:25;;;;;;;2.98;1.10;;;;;;;17.67;73.22;100597.73;5100428;57;1136996;-66
2022/07/27 02:42:31;;;;;;;3.65;1.17;;;;;;;17.63;73.27;100593.66;5146607;56;1137176;-66
2022/07/27 02:47:38;;;;;;;4.62;1.70;;;;;;;17.56;72.78;100601.02;5146754;57;1136919;-67
2022/07/27 02:52:45;;;;;;;3.70;1.30;;;;;;;17.46;72.64;100596.78;5146727;56;1136935;-69
2022/07/27 02:57:51;;;;;;;2.17;1.17;;;;;;;17.41;72.76;100604.47;5146358;57;1136985;-69
2022/07/27 03:02:57;;;;;;;2.87;1.40;;;;;;;17.35;72.87;100612.63;5098934;56;1134906;-68
2022/07/27 03:08:03;;;;;;;6.28;1.27;;;;;;;17.28;72.97;100621.42;5122731;56;1134894;-67
2022/07/27 03:13:09;;;;;;;4.30;1.37;;;;;;;17.19;73.13;100628.08;5131485;56;1138966;-68
2022/07/27 03:18:14;;;;;;;4.57;1.20;;;;;;;17.10;73.66;100629.05;5125430;57;1138989;-67
2022/07/27 03:23:21;;;;;;;4.43;1.00;;;;;;;17.16;73.93;100631.56;5099702;57;1138982;-68
2022/07/27 03:28:26;;;;;;;4.33;1.57;;;;;;;17.23;74.34;100629.95;5117560;56;1139009;-67
2022/07/27 03:33:33;;;;;;;5.50;1.72;;;;;;;17.30;73.74;100630.97;5138086;57;1138997;-68
2022/07/27 03:38:39;;;;;;;9.13;1.67;;;;;;;17.35;73.62;100625.98;5139032;57;1139264;-67
2022/07/27 03:43:45;;;;;;;10.58;1.85;;;;;;;17.34;72.98;100624.81;5132781;57;1139038;-68
2022/07/27 03:48:51;;;;;;;6.48;1.70;;;;;;;17.31;72.72;100625.96;5104790;56;1141256;-68
2022/07/27 03:53:57;;;;;;;4.70;1.20;;;;;;;17.26;72.51;100625.62;5087528;57;1139038;-67
2022/07/27 03:59:03;;;;;;;7.97;1.80;;;;;;;17.19;72.44;100632.09;5159205;56;1139016;-68
2022/07/27 04:04:09;;;;;;;4.37;1.23;;;;;;;17.15;72.26;100633.40;5159058;56;1139042;-67
2022/07/27 04:09:15;;;;;;;7.57;1.47;;;;;;;17.10;72.03;100631.72;5149337;57;1139139;-68
2022/07/27 04:14:21;;;;;;;11.67;1.97;;;;;;;17.08;71.89;100640.39;5075091;56;1138986;-68
2022/07/27 04:19:27;;;;;;;3.57;0.90;;;;;;;17.07;71.94;100630.70;5109268;57;1141361;-67
2022/07/27 04:24:33;;;;;;;9.23;1.43;;;;;;;17.06;72.23;100618.33;5134947;57;1139034;-68
2022/07/27 04:29:39;;;;;;;17.97;2.30;;;;;;;17.08;72.22;100611.48;5124064;56;1139074;-67
2022/07/27 04:34:44;;;;;;;11.87;1.40;;;;;;;17.05;72.16;100615.31;5108036;57;1141111;-68
2022/07/27 04:39:51;;;;;;;5.23;1.30;;;;;;;17.03;72.02;100619.13;5134000;57;1141098;-68
2022/07/27 04:44:58;;;;;;;3.47;1.53;;;;;;;17.03;71.68;100623.14;5104919;57;1139017;-67
2022/07/27 04:50:04;;;;;;;7.00;1.73;;;;;;;17.04;72.14;100624.32;5106871;57;1138997;-67
2022/07/27 04:55:11;;;;;;;11.23;1.60;;;;;;;16.99;72.12;100632.46;5127532;56;1139072;-69
2022/07/27 05:00:17;;;;;;;8.70;1.82;;;;;;;16.98;72.61;100632.12;5117685;57;1141127;-67
2022/07/27 05:05:23;;;;;;;5.20;1.37;;;;;;;16.95;72.63;100637.80;5063961;57;1139143;-69
2022/07/27 05:10:30;;;;;;;10.80;1.90;;;;;;;16.94;71.73;100634.78;5083614;57;1139097;-69
2022/07/27 05:15:36;;;;;;;7.63;1.93;;;;;;;16.93;70.96;100637.95;5180700;56;1141300;-67
2022/07/27 05:20:42;;;;;;;3.90;1.73;;;;;;;16.85;70.72;100640.06;5177817;56;1139322;-68
2022/07/27 05:25:48;;;;;;;6.20;1.77;;;;;;;16.87;70.37;100638.56;5176413;56;1139160;-68
2022/07/27 05:30:53;;;;;;;8.53;1.70;;;;;;;16.87;70.43;100637.23;5188140;56;1139068;-67
2022/07/27 05:35:59;;;;;;;14.83;1.93;;;;;;;16.88;69.76;100641.58;5173550;56;1139068;-68
2022/07/27 05:41:07;;;;;;;7.27;1.77;;;;;;;16.93;69.76;100633.95;5183594;56;1141161;-68
2022/07/27 05:46:13;;;;;;;5.90;1.60;;;;;;;17.01;68.99;100645.17;5160380;56;1138960;-68
2022/07/27 05:51:19;;;;;;;6.90;1.60;;;;;;;17.09;68.90;100665.28;5142096;56;1139036;-68
2022/07/27 05:56:26;;;;;;;6.97;1.63;;;;;;;17.18;68.61;100675.85;5203802;56;1139338;-68
2022/07/27 06:01:31;;;;;;;8.43;1.53;;;;;;;17.19;67.11;100675.36;5169735;56;1138998;-68
2022/07/27 06:12:00;;;;;;;6.30;1.52;;;;;;;17.39;67.43;100676.82;5178474;56;1139640;-69
2022/07/27 06:17:06;;;;;;;9.73;1.47;;;;;;;17.39;66.01;100690.19;5182367;56;1136925;-68
2022/07/27 06:22:12;;;;;;;8.17;1.77;;;;;;;17.35;66.06;100691.49;5170606;56;1137104;-67
2022/07/27 06:27:18;;;;;;;7.37;1.43;;;;;;;17.35;65.33;100687.48;5185727;56;1136919;-66
2022/07/27 06:32:23;;;;;;;5.00;1.40;;;;;;;17.36;64.45;100694.51;5167894;56;1137018;-68
2022/07/27 06:37:30;;;;;;;7.12;1.65;;;;;;;17.31;63.56;100695.47;5184534;56;1136910;-67
2022/07/27 06:42:36;;;;;;;3.93;1.37;;;;;;;17.29;64.33;100696.12;5193889;56;1137013;-66
2022/07/27 06:52:39;;;;;;;4.25;1.20;;;;;;;17.43;64.52;100693.36;5262214;55;46249;-68
2022/07/27 06:57:45;;;;;;;5.23;1.30;;;;;;;17.37;64.49;100702.03;5107189;57;1132729;-66
2022/07/27 07:03:03;;;;;;;9.63;1.60;;;;;;;17.47;64.51;100707.59;4929905;59;1136892;-67
2022/07/27 07:08:16;;;;;;;3.75;1.25;;;;;;;17.66;63.73;100698.53;5009374;57;1136999;-68
2022/07/27 07:13:17;;;;;;;8.13;1.32;;;;;;;17.81;62.62;100698.27;5005136;58;1137179;-67
2022/07/27 07:18:23;;;;;;;7.83;1.33;;;;;;;17.70;61.85;100685.69;5005958;59;1137105;-66
2022/07/27 07:23:29;;;;;;;5.28;1.30;;;;;;;17.81;62.55;100688.06;4922455;59;1137011;-66
2022/07/27 07:28:35;;;;;;;5.08;1.20;;;;;;;18.11;62.93;100688.83;4879883;59;1137008;-68
2022/07/27 07:33:41;;;;;;;3.85;1.47;;;;;;;18.35;61.02;100685.84;4873855;60;1136979;-68
2022/07/27 07:38:46;;;;;;;5.22;1.32;;;;;;;18.60;58.09;100684.42;4940037;59;1137081;-69
2022/07/27 07:43:52;;;;;;;11.73;1.77;;;;;;;18.87;59.85;100688.59;5103029;57;1134882;-66
2022/07/27 07:48:58;;;;;;;3.33;1.12;;;;;;;18.98;57.02;100700.31;4988603;57;1137061;-65
2022/07/27 07:54:03;;;;;;;11.38;1.32;;;;;;;19.02;56.05;100700.81;5004783;58;1139017;-68
2022/07/27 07:59:10;;;;;;;6.73;1.33;;;;;;;18.98;54.63;100708.85;5135108;57;1141055;-67
2022/07/27 08:04:16;;;;;;;9.73;0.90;;;;;;;19.00;54.40;100703.33;5137147;57;1138990;-66
2022/07/27 08:09:25;;;;;;;5.70;1.30;;;;;;;19.11;55.47;100692.25;5052953;58;1138956;-68
2022/07/27 08:14:29;;;;;;;3.67;1.10;;;;;;;18.94;54.02;100694.95;4972759;59;1139057;-68
2022/07/27 08:19:35;;;;;;;2.10;0.98;;;;;;;18.97;54.78;100690.59;5021869;58;1139000;-67
2022/07/27 08:24:41;;;;;;;5.15;0.98;;;;;;;19.23;50.82;100701.13;5061932;58;1139028;-64
2022/07/27 08:29:46;;;;;;;2.55;0.90;;;;;;;19.29;50.59;100696.41;4994424;57;1139038;-67
2022/07/27 08:34:52;;;;;;;4.60;0.80;;;;;;;19.38;49.61;100694.56;5161660;57;1139267;-67
2022/07/27 08:39:58;;;;;;;6.97;0.70;;;;;;;19.39;49.14;100694.06;5140637;56;1139231;-66
2022/07/27 08:45:05;;;;;;;3.10;0.82;;;;;;;19.45;48.34;100697.38;5162292;57;1139215;-73
2022/07/27 08:50:23;;;;;;;4.25;1.15;;;;;;;19.54;48.22;100700.42;5079232;57;1138869;-67
2022/07/27 08:55:28;;;;;;;2.87;0.88;;;;;;;19.78;48.82;100698.14;5012023;57;1139004;-68
2022/07/27 09:00:38;;;;;;;0.60;0.60;;;;;;;20.09;47.68;100702.18;5020563;57;1139024;-75
2022/07/27 09:05:46;;;;;;;2.47;0.68;;;;;;;20.04;44.93;100697.33;5028571;57;1139019;-72
2022/07/27 09:10:56;;;;;;;4.12;0.55;;;;;;;19.89;44.23;100697.74;4977435;58;1139046;-73
2022/07/27 09:16:07;;;;;;;3.98;0.72;;;;;;;20.01;46.06;100696.37;5015382;57;1139043;-76
2022/07/27 09:21:24;;;;;;;2.98;0.70;;;;;;;20.19;44.86;100696.08;4982452;58;1138522;-69
2022/07/27 09:26:30;;;;;;;3.25;1.15;;;;;;;20.31;44.14;100690.66;4995458;58;1139390;-69
2022/07/27 09:31:51;;;;;;;0.88;0.80;;;;;;;20.52;47.09;100690.85;4990399;57;1139054;-74
2022/07/27 09:37:02;;;;;;;0.98;0.55;;;;;;;20.82;45.89;100688.27;5060741;57;1139295;-70
2022/07/27 09:42:10;;;;;;;3.72;0.55;;;;;;;20.88;44.33;100696.95;5100552;57;1139410;-70
2022/07/27 09:47:25;;;;;;;2.30;0.60;;;;;;;20.81;43.42;100696.83;5048482;58;1139056;-75
2022/07/27 09:52:31;;;;;;;1.80;0.72;;;;;;;20.71;43.45;100694.41;5085870;57;1139140;-74
2022/07/27 09:57:55;;;;;;;0.55;0.45;;;;;;;21.00;44.87;100692.81;5054180;58;1138914;-74
2022/07/27 10:03:00;;;;;;;;;;;;;;;21.37;44.69;100687.43;5040152;58;1137223;-71
2022/07/27 10:08:06;;;;;;;2.27;0.70;;;;;;;21.52;44.19;100684.74;5098240;57;974232;-67
2022/07/27 10:13:12;;;;;;;2.08;0.90;;;;;;;21.45;42.79;100695.07;5142743;56;1135204;-68
2022/07/27 10:18:22;;;;;;;1.92;0.80;;;;;;;21.40;42.12;100691.07;5158542;56;1137403;-72
2022/07/27 10:23:33;;;;;;;5.05;0.93;;;;;;;21.26;42.89;100695.09;5136527;56;1136953;-73
2022/07/27 10:28:51;;;;;;;3.37;0.85;;;;;;;21.19;43.27;100699.05;5235975;56;1137261;-72
2022/07/27 10:34:00;;;;;;;2.58;0.85;;;;;;;21.12;44.17;100705.30;5168022;56;1136993;-71
2022/07/27 10:39:07;;;;;;;3.55;1.12;;;;;;;21.23;43.68;100702.22;5149854;56;1136951;-73
2022/07/27 10:44:43;;;;;;;5.15;0.80;;;;;;;21.05;44.00;100718.15;5158802;56;1137240;-73
2022/07/27 10:50:20;;;;;;;2.30;0.80;;;;;;;21.40;43.48;100715.80;5145463;56;1139543;-68
2022/07/27 10:55:37;;;;;;;1.55;0.80;;;;;;;21.51;40.53;100711.33;5237041;56;1139062;-69
2022/07/27 11:00:54;;;;;;;4.08;1.00;;;;;;;21.71;38.81;100700.30;5235925;56;1139037;-67
2022/07/27 11:06:11;;;;;;;2.35;0.60;;;;;;;21.92;41.65;100696.85;5133606;57;1139114;-67
2022/07/27 11:11:22;;;;;;;2.33;1.17;;;;;;;22.30;41.81;100691.33;5235919;56;1139043;-67
2022/07/27 11:16:30;;;;;;;2.60;1.02;;;;;;;21.72;40.87;100695.75;5236128;56;1139324;-70
2022/07/27 11:21:40;;;;;;;4.53;0.82;;;;;;;21.59;40.94;100684.81;5137398;57;1139506;-65
2022/07/27 11:26:49;;;;;;;2.87;0.80;;;;;;;21.94;42.21;100677.30;5178517;56;1139109;-67
2022/07/27 11:31:58;;;;;;;2.17;0.80;;;;;;;21.79;41.11;100685.08;5158756;56;1139074;-66
2022/07/27 11:37:08;;;;;;;1.57;0.70;;;;;;;21.46;41.24;100692.70;5157294;56;1139074;-68
2022/07/27 11:42:15;;;;;;;2.90;0.80;;;;;;;21.71;44.41;100684.66;5194197;56;1139043;-66
2022/07/27 11:47:23;;;;;;;1.32;0.85;;;;;;;22.05;40.21;100686.27;5197225;56;1139178;-68
2022/07/27 11:52:29;;;;;;;2.35;0.82;;;;;;;21.71;39.96;100687.34;5199326;56;1138950;-70
2022/07/27 11:57:35;;;;;;;0.93;0.65;;;;;;;21.82;40.84;100704.91;5183358;55;1139067;-69
2022/07/27 12:02:51;;;;;;;2.02;0.80;;;;;;;21.78;39.96;100689.62;5173526;56;1139343;-68
2022/07/27 12:07:56;;;;;;;7.30;0.88;;;;;;;21.81;40.83;100690.61;5237513;56;1139160;-67
2022/07/27 12:13:02;;;;;;;1.17;0.80;;;;;;;22.17;41.02;100682.55;5248456;56;1138936;-66
2022/07/27 12:18:08;;;;;;;1.02;0.60;;;;;;;22.41;39.30;100677.34;5227275;56;1139119;-69
2022/07/27 12:23:14;;;;;;;4.28;1.50;;;;;;;22.20;40.41;100694.82;5061048;58;1139362;-68
2022/07/27 12:28:24;;;;;;;2.80;0.74;;;;;;;22.27;39.89;100689.00;5122583;57;1137153;-71
2022/07/27 12:33:34;;;;;;;3.60;0.70;;;;;;;22.13;40.25;100686.68;5188035;56;1136918;-65
2022/07/27 12:38:47;;;;;;;1.07;0.53;;;;;;;22.00;39.29;100686.50;5174571;56;1137208;-67
2022/07/27 12:44:12;;;;;;;4.83;0.95;;;;;;;22.34;40.61;100692.08;5125861;57;1136997;-65
2022/07/27 12:49:20;;;;;;;1.15;0.70;;;;;;;22.25;39.36;100692.39;5172284;56;1137220;-67
2022/07/27 12:54:26;;;;;;;2.52;0.90;;;;;;;22.08;38.63;100696.66;5169332;56;1136880;-72
2022/07/27 12:59:31;;;;;;;3.12;0.85;;;;;;;21.78;39.57;100696.88;5194963;56;1136873;-69
2022/07/27 13:04:37;;;;;;;3.95;1.00;;;;;;;21.74;39.61;100699.09;5193043;56;1137195;-63
2022/07/27 13:09:43;;;;;;;2.00;0.80;;;;;;;21.70;39.91;100697.79;5185767;56;1136841;-64
2022/07/27 13:14:49;;;;;;;3.37;0.85;;;;;;;21.82;39.20;100694.14;5062412;57;1137092;-65
2022/07/27 13:19:55;;;;;;;3.60;1.10;;;;;;;22.00;40.00;100690.54;5185224;56;1136437;-72
2022/07/27 13:25:01;;;;;;;2.22;0.85;;;;;;;22.21;40.20;100691.94;5192597;56;1134789;-65
2022/07/27 13:30:12;;;;;;;1.50;1.12;;;;;;;22.45;38.51;100690.24;5176988;56;1135078;-70
2022/07/27 13:35:18;;;;;;;1.03;0.70;;;;;;;22.49;37.96;100685.28;5147618;56;1138487;-66
2022/07/27 13:40:23;;;;;;;4.53;1.22;;;;;;;22.61;38.63;100670.80;5100922;57;1139054;-69
2022/07/27 13:45:29;;;;;;;1.07;0.60;;;;;;;22.90;37.64;100672.52;5148986;57;1143854;-69
2022/07/27 13:50:35;;;;;;;2.72;1.05;;;;;;;22.81;36.28;100678.55;5106488;57;1139067;-68
2022/07/27 13:55:41;;;;;;;4.67;1.30;;;;;;;23.02;37.17;100678.53;5126284;57;1139076;-68
2022/07/27 14:00:49;;;;;;;2.27;0.68;;;;;;;23.26;36.78;100678.58;5202509;56;1139313;-67
2022/07/27 14:05:54;;;;;;;3.65;1.50;;;;;;;23.33;36.10;100684.87;5203199;56;1139348;-66
2022/07/27 14:11:01;;;;;;;6.08;1.75;;;;;;;23.36;37.10;100684.48;5189152;56;1139328;-67
2022/07/27 14:16:07;;;;;;;2.33;0.78;;;;;;;23.52;35.47;100677.96;5251487;56;1138813;-67
2022/07/27 14:21:14;;;;;;;1.25;0.65;;;;;;;23.30;36.51;100687.95;5171279;56;1138948;-67
2022/07/27 14:26:21;;;;;;;1.45;1.27;;;;;;;23.23;36.60;100690.28;5164824;57;1138925;-65
2022/07/27 14:31:26;;;;;;;4.45;1.85;;;;;;;23.11;36.67;100692.70;5177392;56;1139041;-70
2022/07/27 14:36:32;;;;;;;2.33;1.40;;;;;;;23.05;37.02;100697.03;5200932;56;1139414;-66
2022/07/27 14:41:38;;;;;;;1.30;0.70;;;;;;;22.89;38.01;100687.04;5203172;56;1138852;-69
2022/07/27 14:46:44;;;;;;;1.40;0.80;;;;;;;22.75;37.11;100685.55;5164952;56;1138988;-71
2022/07/27 14:51:49;;;;;;;3.33;1.20;;;;;;;22.93;37.48;100691.83;5189072;56;1139216;-68
2022/07/27 14:56:55;;;;;;;6.65;2.52;;;;;;;23.18;38.91;100699.50;5244173;56;1139060;-71
2022/07/27 15:02:01;;;;;;;2.98;0.50;;;;;;;23.43;38.23;100692.09;5236239;56;1139080;-71
2022/07/27 15:07:07;;;;;;;1.05;0.57;;;;;;;23.36;35.91;100693.09;5236314;56;1139006;-68
2022/07/27 15:12:13;;;;;;;3.67;0.98;;;;;;;23.16;36.48;100688.91;5236569;56;1138999;-69
2022/07/27 15:17:19;;;;;;;8.63;1.00;;;;;;;22.86;36.75;100692.81;5225407;56;1139064;-67
2022/07/27 15:22:25;;;;;;;1.92;0.98;;;;;;;22.70;37.25;100685.80;5176721;56;1139016;-69
2022/07/27 15:27:30;;;;;;;3.80;1.10;;;;;;;22.82;37.86;100678.88;5197792;56;1139103;-74
2022/07/27 15:32:36;;;;;;;8.60;0.90;;;;;;;22.91;36.50;100684.98;5175975;56;1138904;-67
2022/07/27 15:37:43;;;;;;;1.75;0.80;;;;;;;22.85;36.27;100680.36;5183860;55;1139058;-70
2022/07/27 15:42:49;;;;;;;7.45;1.12;;;;;;;22.88;37.51;100697.50;5192090;56;1139234;-70
2022/07/27 15:47:54;;;;;;;4.35;1.05;;;;;;;22.83;36.37;100700.77;5190727;56;1139221;-67
2022/07/27 15:53:00;;;;;;;3.25;1.45;;;;;;;22.75;36.70;100689.59;5195083;56;1138907;-73
2022/07/27 15:58:07;;;;;;;1.10;0.98;;;;;;;22.75;36.70;100689.59;5194378;56;1139008;-72
2022/07/27 16:03:13;;;;;;;1.95;0.80;;;;;;;22.81;36.49;100694.73;5197166;56;1138968;-65
2022/07/27 16:08:20;;;;;;;5.42;0.80;;;;;;;22.77;35.75;100701.54;5194468;56;1138946;-70
2022/07/27 16:13:26;;;;;;;2.08;0.78;;;;;;;22.58;36.12;100702.17;5198995;56;1139161;-74
2022/07/27 16:18:32;;;;;;;1.02;0.90;;;;;;;22.42;36.29;100707.30;5191709;56;1138960;-67
2022/07/27 16:23:38;;;;;;;2.15;0.70;;;;;;;22.32;37.75;100699.52;5207094;56;1139175;-65
2022/07/27 16:28:47;;;;;;;9.45;0.93;;;;;;;22.45;37.59;100704.23;5192249;56;1138933;-65
2022/07/27 16:33:57;;;;;;;3.22;1.10;;;;;;;22.45;37.17;100698.84;5212124;56;1139075;-65
2022/07/27 16:39:01;;;;;;;1.12;0.75;;;;;;;22.27;36.09;100695.23;5192616;55;1138979;-67
2022/07/27 16:44:07;;;;;;;2.10;1.10;;;;;;;21.97;36.34;100703.87;5201460;56;1138989;-67
2022/07/27 16:49:14;;;;;;;3.62;1.62;;;;;;;21.86;37.25;100709.70;5174434;56;1136696;-65
2022/07/27 16:54:19;;;;;;;5.58;1.75;;;;;;;21.76;37.40;100700.59;5235990;56;1136945;-67
2022/07/27 16:59:25;;;;;;;3.70;1.10;;;;;;;21.74;38.25;100704.48;5220928;56;1136978;-65
2022/07/27 17:04:32;;;;;;;2.25;0.90;;;;;;;21.73;37.50;100701.47;5225750;56;1136878;-67
2022/07/27 17:09:37;;;;;;;5.28;1.25;;;;;;;21.70;37.52;100706.70;5206181;56;1136914;-63
2022/07/27 17:14:43;;;;;;;2.35;1.60;;;;;;;21.55;37.65;100701.84;5223439;56;1136844;-66
2022/07/27 17:19:49;;;;;;;4.22;1.62;;;;;;;21.55;37.65;100701.84;5217767;56;1137054;-68
2022/07/27 17:24:55;;;;;;;5.95;1.27;;;;;;;21.53;38.11;100712.48;5202956;56;1137235;-67
2022/07/27 17:30:01;;;;;;;3.10;1.40;;;;;;;21.41;38.10;100716.13;5192305;56;1137157;-64
2022/07/27 17:35:08;;;;;;;5.58;1.92;;;;;;;21.26;38.98;100710.73;5171309;56;1137181;-67
2022/07/27 17:40:14;;;;;;;11.28;7.28;;;;;;;21.28;39.19;100707.34;5234146;55;1137190;-63
2022/07/27 17:45:20;;;;;;;10.13;2.30;;;;;;;21.22;39.59;100718.03;5222516;56;1138948;-65
2022/07/27 17:50:26;;;;;;;9.18;1.77;;;;;;;21.15;39.41;100721.91;5200786;56;1139064;-66
2022/07/27 17:55:31;;;;;;;2.85;1.50;;;;;;;20.99;39.51;100724.24;5208121;56;1137211;-64
2022/07/27 18:00:37;;;;;;;2.87;1.25;;;;;;;20.83;40.13;100724.88;5246171;56;1136894;-66
2022/07/27 18:05:43;;;;;;;5.25;2.20;;;;;;;20.71;40.64;100724.48;5200061;56;1136967;-64
2022/07/27 18:10:50;;;;;;;2.95;1.30;;;;;;;20.63;41.01;100725.87;5186286;56;1136901;-67
2022/07/27 18:15:55;;;;;;;7.58;5.03;;;;;;;20.49;41.63;100730.16;5212287;56;1136942;-66
2022/07/27 18:21:01;;;;;;;10.65;3.95;;;;;;;20.36;42.07;100740.16;5157118;56;1134760;-65
2022/07/27 18:26:08;;;;;;;7.95;3.45;;;;;;;20.25;42.38;100731.64;5203908;56;1136882;-68
2022/07/27 18:31:16;;;;;;;13.05;1.92;;;;;;;20.16;42.45;100742.11;5189423;56;1139167;-67
2022/07/27 18:36:22;;;;;;;35.17;20.93;;;;;;;20.09;42.78;100744.64;5251501;55;1141000;-65
2022/07/27 18:41:29;;;;;;;125.87;105.97;;;;;;;20.06;43.00;100750.86;5215414;55;1143096;-63
2022/07/27 18:46:35;;;;;;;23.42;16.77;;;;;;;20.00;43.27;100748.39;5205384;56;1147551;-65
2022/07/27 18:51:41;;;;;;;5.60;2.75;;;;;;;20.06;43.60;100753.04;5174677;56;1143187;-66
2022/07/27 18:56:47;;;;;;;8.98;1.95;;;;;;;20.09;43.89;100759.92;5151561;56;1139268;-63
2022/07/27 19:01:53;;;;;;;6.53;1.95;;;;;;;19.98;44.03;100766.02;5151521;56;1139037;-65
2022/07/27 19:06:58;;;;;;;15.30;2.35;;;;;;;19.97;44.31;100764.84;5151616;56;1138999;-66
2022/07/27 19:12:04;;;;;;;14.18;5.25;;;;;;;19.90;44.32;100775.42;5202578;56;1141089;-64
2022/07/27 19:17:10;;;;;;;25.10;10.53;;;;;;;19.90;44.56;100783.98;5193742;56;1141137;-64
2022/07/27 19:22:16;;;;;;;11.85;5.25;;;;;;;19.83;44.58;100789.22;5232183;56;1143218;-67
2022/07/27 19:27:23;;;;;;;7.72;2.50;;;;;;;19.82;44.83;100800.96;5185282;56;1141033;-64
2022/07/27 19:32:29;;;;;;;6.75;3.02;;;;;;;19.77;44.94;100807.84;5194521;56;1139430;-64
2022/07/27 19:37:38;;;;;;;9.40;2.47;;;;;;;19.71;45.36;100809.35;5190889;56;1138996;-67
2022/07/27 19:42:43;;;;;;;16.42;5.78;;;;;;;19.76;45.84;100813.72;5218568;55;1138924;-67
2022/07/27 19:47:50;;;;;;;15.85;5.12;;;;;;;19.86;46.03;100809.52;5193863;56;1141090;-63
2022/07/27 19:52:55;;;;;;;42.62;6.33;;;;;;;19.87;46.09;100816.02;5205361;56;1141039;-68
2022/07/27 19:58:02;;;;;;;55.45;5.87;;;;;;;19.80;46.34;100811.03;5195478;56;1141120;-65
2022/07/27 20:03:08;;;;;;;27.60;6.05;;;;;;;19.78;46.51;100821.09;5187497;56;1141044;-65
2022/07/27 20:08:14;;;;;;;15.05;3.62;;;;;;;19.72;46.65;100822.27;5205813;55;1141064;-67
2022/07/27 20:13:20;;;;;;;13.98;3.58;;;;;;;19.50;46.78;100819.30;5188610;56;1141043;-65
2022/07/27 20:18:27;;;;;;;23.75;4.60;;;;;;;19.42;47.23;100821.94;5206727;56;1141085;-64
2022/07/27 20:23:33;;;;;;;52.65;8.98;;;;;;;19.43;47.51;100818.76;5203275;56;1141037;-67
2022/07/27 20:28:40;;;;;;;46.42;12.47;;;;;;;19.38;47.68;100819.28;5171979;56;1140904;-65
2022/07/27 20:33:46;;;;;;;20.35;7.08;;;;;;;19.35;47.83;100829.50;5021815;58;1143265;-66
2022/07/27 20:38:52;;;;;;;14.93;3.72;;;;;;;19.10;48.31;100836.19;5191773;56;1141040;-64
2022/07/27 20:43:58;;;;;;;17.12;6.72;;;;;;;18.90;49.60;100836.18;5129058;56;1141060;-64
2022/07/27 20:49:05;;;;;;;6.47;3.12;;;;;;;18.69;51.12;100839.31;5188497;56;1141025;-67
2022/07/27 20:54:12;;;;;;;6.72;2.90;;;;;;;18.53;52.02;100838.73;5088952;57;1139024;-65
2022/07/27 20:59:18;;;;;;;17.42;2.70;;;;;;;18.25;52.96;100854.69;5189056;56;1138965;-67
2022/07/27 21:04:24;;;;;;;12.33;2.90;;;;;;;18.13;53.74;100856.81;5180613;56;1141075;-66
2022/07/27 21:09:30;;;;;;;10.45;2.30;;;;;;;17.92;54.22;100854.52;5020528;58;1141124;-67
2022/07/27 21:14:36;;;;;;;6.15;2.75;;;;;;;17.78;54.79;100860.45;5181259;56;1141315;-66
2022/07/27 21:19:42;;;;;;;8.10;2.62;;;;;;;17.82;55.29;100863.16;5185530;56;1139159;-66
2022/07/27 21:24:48;;;;;;;4.50;2.08;;;;;;;17.90;55.33;100860.52;5182180;56;1138998;-66
2022/07/27 21:29:54;;;;;;;5.83;1.70;;;;;;;17.95;55.34;100862.73;5045042;58;1139267;-64
2022/07/27 21:35:00;;;;;;;11.05;1.62;;;;;;;17.92;55.36;100863.04;5141485;57;1139184;-66
2022/07/27 21:40:06;;;;;;;6.50;1.90;;;;;;;17.77;54.99;100875.31;5118301;57;1141047;-66
2022/07/27 21:45:12;;;;;;;10.25;2.60;;;;;;;17.77;55.38;100870.80;5238238;55;1136889;-66
2022/07/27 21:50:18;;;;;;;11.20;3.45;;;;;;;17.82;55.67;100873.02;5238054;55;1138969;-65
2022/07/27 21:55:24;;;;;;;8.10;2.67;;;;;;;17.88;55.78;100884.41;5238054;55;1139231;-64
2022/07/27 22:00:30;;;;;;;6.78;1.60;;;;;;;17.83;55.52;100888.08;5238046;55;1136897;-65
2022/07/27 22:05:39;;;;;;;8.25;1.80;;;;;;;17.56;55.52;100894.37;5214147;55;1136975;-67
2022/07/27 22:10:45;;;;;;;7.45;1.72;;;;;;;17.38;56.25;100894.88;5183795;56;1137104;-64
2022/07/27 22:15:52;;;;;;;7.03;1.85;;;;;;;17.34;56.84;100906.88;5175946;56;1136909;-63
2022/07/27 22:20:58;;;;;;;4.90;2.13;;;;;;;17.12;56.77;100908.98;5197924;56;1136997;-66
2022/07/27 22:26:04;;;;;;;4.40;2.27;;;;;;;17.11;57.31;100918.00;5179050;56;1136933;-65
2022/07/27 22:31:09;;;;;;;3.07;1.80;;;;;;;17.01;57.74;100912.38;5173200;56;1136997;-66
2022/07/27 22:36:15;;;;;;;4.13;1.90;;;;;;;17.08;57.91;100919.66;5090081;57;1137137;-63
2022/07/27 22:41:21;;;;;;;9.70;2.10;;;;;;;17.10;57.67;100919.52;5202275;56;1137019;-65
2022/07/27 22:46:29;;;;;;;7.97;1.87;;;;;;;16.86;57.70;100921.41;5061569;57;1136933;-64
2022/07/27 22:51:35;;;;;;;9.17;3.00;;;;;;;16.82;58.22;100927.53;5227767;56;1136894;-64
2022/07/27 22:56:40;;;;;;;5.17;2.07;;;;;;;16.85;58.62;100929.91;5061532;57;1136921;-63
2022/07/27 23:01:46;;;;;;;6.87;2.57;;;;;;;16.91;58.58;100932.50;5227115;56;1137022;-63
2022/07/27 23:06:52;;;;;;;13.30;2.00;;;;;;;16.86;58.22;100932.09;5215076;56;1136895;-66
2022/07/27 23:11:58;;;;;;;6.47;1.90;;;;;;;16.65;58.15;100944.88;5214790;56;1137174;-65
2022/07/27 23:17:04;;;;;;;7.30;2.17;;;;;;;16.63;58.87;100949.03;5214929;56;1134870;-63
2022/07/27 23:22:10;;;;;;;6.70;2.27;;;;;;;16.42;59.41;100977.73;5224775;56;21157;-66
2022/07/27 23:27:16;;;;;;;3.90;2.60;;;;;;;15.96;60.09;100979.37;5129704;57;1134709;-65
2022/07/27 23:32:21;;;;;;;9.10;2.77;;;;;;;15.91;60.74;100974.95;5129606;57;1139198;-64